createdAt,value
2022-08-14T00:02:27.202Z,21.73
2022-08-14T00:04:56.157Z,21.76
2022-08-14T00:07:24.076Z,21.77
2022-08-14T00:09:55.566Z,21.71
2022-08-14T00:12:48.189Z,21.15
2022-08-14T00:15:22.711Z,21.30
2022-08-14T00:17:53.395Z,21.45
2022-08-14T00:20:30.823Z,21.43
2022-08-14T00:23:11.953Z,21.36
2022-08-14T00:25:42.884Z,21.28
2022-08-14T00:28:15.621Z,21.46
2022-08-14T00:30:46.753Z,21.64
2022-08-14T00:33:16.663Z,21.82
2022-08-14T00:36:35.669Z,21.76
2022-08-14T00:38:34.731Z,21.71
2022-08-14T00:41:06.959Z,21.76
2022-08-14T00:43:41.684Z,21.84
2022-08-14T00:46:32.663Z,21.45
2022-08-14T00:49:02.252Z,21.52
2022-08-14T00:51:37.838Z,21.63
2022-08-14T00:54:17.102Z,21.78
2022-08-14T00:56:54.874Z,21.52
2022-08-14T00:59:24.710Z,21.48
2022-08-14T01:01:55.620Z,21.47
2022-08-14T01:04:37.691Z,21.47
2022-08-14T01:07:14.168Z,21.27
2022-08-14T01:09:42.646Z,21.11
2022-08-14T01:12:13.282Z,21.40
2022-08-14T01:14:55.431Z,21.13
2022-08-14T01:17:49.907Z,21.26
2022-08-14T01:20:35.906Z,21.39
2022-08-14T01:23:16.299Z,21.45
2022-08-14T01:25:49.209Z,21.40
2022-08-14T01:28:46.271Z,21.37
2022-08-14T01:31:12.218Z,21.38
2022-08-14T01:33:59.859Z,21.38
2022-08-14T01:36:49.057Z,21.24
2022-08-14T01:39:18.967Z,21.09
2022-08-14T01:41:56.280Z,21.23
2022-08-14T01:44:31.180Z,21.19
2022-08-14T01:47:05.931Z,21.02
2022-08-14T01:49:35.737Z,21.15
2022-08-14T01:52:34.462Z,21.04
2022-08-14T01:55:06.683Z,20.94
2022-08-14T01:58:00.809Z,20.84
2022-08-14T02:00:27.665Z,20.70
2022-08-14T02:02:56.936Z,20.76
2022-08-14T02:05:29.500Z,20.79
2022-08-14T02:08:09.392Z,20.90
2022-08-14T02:10:46.411Z,20.81
2022-08-14T02:13:16.751Z,20.82
2022-08-14T02:15:48.768Z,20.82
2022-08-14T02:18:18.617Z,20.73
2022-08-14T02:20:49.015Z,20.61
2022-08-14T02:23:28.982Z,20.53
2022-08-14T02:26:24.231Z,20.73
2022-08-14T02:28:56.487Z,20.69
2022-08-14T02:31:36.035Z,20.67
2022-08-14T02:34:22.324Z,20.72
2022-08-14T02:37:04.250Z,20.63
2022-08-14T02:39:38.240Z,20.66
2022-08-14T02:42:13.018Z,20.68
2022-08-14T02:44:48.766Z,20.76
2022-08-14T02:47:20.925Z,20.64
2022-08-14T02:49:54.793Z,20.63
2022-08-14T02:52:56.355Z,20.60
2022-08-14T02:55:15.623Z,20.55
2022-08-14T02:57:57.884Z,20.59
2022-08-14T03:00:35.278Z,20.60
2022-08-14T03:03:08.353Z,20.56
2022-08-14T03:05:41.670Z,20.57
2022-08-14T03:08:19.010Z,20.57
2022-08-14T03:10:50.207Z,20.59
2022-08-14T03:13:21.571Z,20.55
2022-08-14T03:15:55.499Z,20.48
2022-08-14T03:18:30.620Z,20.52
2022-08-14T03:21:01.934Z,20.39
2022-08-14T03:23:36.369Z,20.36
2022-08-14T03:26:08.577Z,20.38
2022-08-14T03:28:40.410Z,20.42
2022-08-14T03:31:13.345Z,20.46
2022-08-14T03:33:43.071Z,20.48
2022-08-14T03:37:38.144Z,20.46
2022-08-14T03:39:14.043Z,20.39
2022-08-14T03:41:51.662Z,20.34
2022-08-14T03:45:19.986Z,20.35
2022-08-14T03:47:08.402Z,20.28
2022-08-14T03:49:42.124Z,20.39
2022-08-14T03:52:28.154Z,20.24
2022-08-14T03:55:00.734Z,20.34
2022-08-14T03:57:32.749Z,20.25
2022-08-14T04:00:09.053Z,20.17
2022-08-14T04:02:47.325Z,20.13
2022-08-14T04:05:16.545Z,20.08
2022-08-14T04:07:49.749Z,20.14
2022-08-14T04:10:33.622Z,20.07
2022-08-14T04:13:05.940Z,20.03
2022-08-14T04:15:55.647Z,20.05
2022-08-14T04:18:23.297Z,20.02
2022-08-14T04:20:55.150Z,20.02
2022-08-14T04:23:29.476Z,20.00
2022-08-14T04:26:02.571Z,20.02
2022-08-14T04:29:01.945Z,20.01
2022-08-14T04:31:24.796Z,20.01
2022-08-14T04:34:20.829Z,20.00
2022-08-14T04:37:12.461Z,20.03
2022-08-14T04:39:58.883Z,20.07
2022-08-14T04:42:47.307Z,20.05
2022-08-14T04:45:23.593Z,20.08
2022-08-14T04:48:10.109Z,20.13
2022-08-14T04:50:44.602Z,20.13
2022-08-14T04:53:15.972Z,20.17
2022-08-14T04:55:47.808Z,20.22
2022-08-14T04:58:22.050Z,20.29
2022-08-14T05:01:06.294Z,20.37
2022-08-14T05:03:42.266Z,20.46
2022-08-14T05:06:38.072Z,20.36
2022-08-14T05:09:01.340Z,20.32
2022-08-14T05:11:33.433Z,20.55
2022-08-14T05:14:16.620Z,20.48
2022-08-14T05:16:59.290Z,20.60
2022-08-14T05:19:31.850Z,20.53
2022-08-14T05:22:16.950Z,20.59
2022-08-14T05:24:49.633Z,20.70
2022-08-14T05:27:23.301Z,20.81
2022-08-14T05:29:55.097Z,20.81
2022-08-14T05:32:27.624Z,20.84
2022-08-14T05:34:58.139Z,20.87
2022-08-14T05:37:26.595Z,20.87
2022-08-14T05:39:55.380Z,21.08
2022-08-14T05:42:29.477Z,21.10
2022-08-14T05:45:02.141Z,21.12
2022-08-14T05:47:39.159Z,21.10
2022-08-14T05:50:18.686Z,21.30
2022-08-14T05:52:50.348Z,21.22
2022-08-14T05:55:22.907Z,21.23
2022-08-14T05:57:59.361Z,21.34
2022-08-14T06:00:36.870Z,21.57
2022-08-14T06:03:11.004Z,21.30
2022-08-14T06:05:39.924Z,21.28
2022-08-14T06:08:31.215Z,21.25
2022-08-14T06:11:07.737Z,21.64
2022-08-14T06:13:44.614Z,21.73
2022-08-14T06:16:17.836Z,21.73
2022-08-14T06:18:52.998Z,21.60
2022-08-14T06:21:24.603Z,21.69
2022-08-14T06:23:54.372Z,21.71
2022-08-14T06:26:22.762Z,21.70
2022-08-14T06:28:59.915Z,21.68
2022-08-14T06:31:28.096Z,21.65
2022-08-14T06:35:03.613Z,21.68
2022-08-14T06:36:45.912Z,21.75
2022-08-14T06:39:17.194Z,21.84
2022-08-14T06:41:57.820Z,21.91
2022-08-14T06:44:32.307Z,21.98
2022-08-14T06:47:01.990Z,22.05
2022-08-14T06:49:42.761Z,22.13
2022-08-14T06:52:15.260Z,22.18
2022-08-14T06:54:44.191Z,22.69
2022-08-14T06:57:12.656Z,22.55
2022-08-14T06:59:42.191Z,22.63
2022-08-14T07:02:28.809Z,22.56
2022-08-14T07:05:20.776Z,22.54
2022-08-14T07:07:52.199Z,22.52
2022-08-14T07:10:25.652Z,22.62
2022-08-14T07:13:01.533Z,22.71
2022-08-14T07:15:33.865Z,22.75
2022-08-14T07:18:03.603Z,22.69
2022-08-14T07:20:34.490Z,22.68
2022-08-14T07:23:08.606Z,22.74
2022-08-14T07:25:42.278Z,22.78
2022-08-14T07:28:20.821Z,22.84
2022-08-14T07:30:51.085Z,23.06
2022-08-14T07:33:24.677Z,23.05
2022-08-14T07:36:00.712Z,23.16
2022-08-14T07:38:36.231Z,23.30
2022-08-14T07:41:11.846Z,23.48
2022-08-14T07:43:47.404Z,24.24
2022-08-14T07:46:29.393Z,24.70
2022-08-14T07:48:59.140Z,24.63
2022-08-14T07:51:34.365Z,24.59
2022-08-14T07:54:11.311Z,24.44
2022-08-14T07:56:46.856Z,24.28
2022-08-14T07:59:18.714Z,24.38
2022-08-14T08:01:51.724Z,24.62
2022-08-14T08:04:27.071Z,24.58
2022-08-14T08:06:57.843Z,24.47
2022-08-14T08:09:32.371Z,24.58
2022-08-14T08:12:09.396Z,24.86
2022-08-14T08:14:56.665Z,24.96
2022-08-14T08:17:34.732Z,25.07
2022-08-14T08:20:11.798Z,25.20
2022-08-14T08:22:48.014Z,25.15
2022-08-14T08:25:18.859Z,25.11
2022-08-14T08:27:59.779Z,25.36
2022-08-14T08:30:29.008Z,25.40
2022-08-14T08:32:58.683Z,25.47
2022-08-14T08:35:46.524Z,25.42
2022-08-14T08:39:18.382Z,25.68
2022-08-14T08:41:11.165Z,25.56
2022-08-14T08:43:45.781Z,25.70
2022-08-14T08:46:21.518Z,25.80
2022-08-14T08:51:25.031Z,25.82
2022-08-14T08:54:02.153Z,25.79
2022-08-14T08:56:40.677Z,25.87
2022-08-14T08:59:22.031Z,25.88
2022-08-14T09:01:58.194Z,26.31
2022-08-14T09:04:27.415Z,26.24
2022-08-14T09:07:09.211Z,26.14
2022-08-14T09:09:56.898Z,26.38
2022-08-14T09:12:27.146Z,26.50
2022-08-14T09:15:00.881Z,26.67
2022-08-14T09:17:30.494Z,26.98
2022-08-14T09:20:01.971Z,27.09
2022-08-14T09:22:47.917Z,27.31
2022-08-14T09:25:19.598Z,27.38
2022-08-14T09:27:48.333Z,27.36
2022-08-14T09:30:32.748Z,27.24
2022-08-14T09:33:22.499Z,27.42
2022-08-14T09:36:18.482Z,27.73
2022-08-14T09:38:53.774Z,27.85
2022-08-14T09:42:20.352Z,28.09
2022-08-14T09:44:45.777Z,28.35
2022-08-14T09:47:18.793Z,28.41
2022-08-14T09:49:53.110Z,28.20
2022-08-14T09:52:33.981Z,28.37
2022-08-14T09:55:03.287Z,28.99
2022-08-14T09:57:33.308Z,29.57
2022-08-14T10:00:29.303Z,29.66
2022-08-14T10:03:05.585Z,30.24
2022-08-14T10:05:38.044Z,31.09
2022-08-14T10:08:26.110Z,31.93
2022-08-14T10:10:57.342Z,32.83
2022-08-14T10:13:52.959Z,33.85
2022-08-14T10:16:27.371Z,34.99
2022-08-14T10:19:09.485Z,35.25
2022-08-14T10:23:13.549Z,34.43
2022-08-14T10:24:36.774Z,33.64
2022-08-14T10:27:17.024Z,32.86
2022-08-14T10:29:50.125Z,32.85
2022-08-14T10:32:36.227Z,32.76
2022-08-14T10:35:14.488Z,32.00
2022-08-14T10:37:48.342Z,32.43
2022-08-14T10:40:43.394Z,32.57
2022-08-14T10:43:22.923Z,32.10
2022-08-14T10:45:59.773Z,32.07
2022-08-14T10:48:58.249Z,32.46
2022-08-14T10:51:30.110Z,32.34
2022-08-14T10:54:35.322Z,32.85
2022-08-14T10:56:57.520Z,32.31
2022-08-14T10:59:34.987Z,32.28
2022-08-14T11:02:45.300Z,32.14
2022-08-14T11:05:14.815Z,32.26
2022-08-14T11:07:56.352Z,32.60
2022-08-14T11:10:27.773Z,32.63
2022-08-14T11:12:59.337Z,33.17
2022-08-14T11:15:32.327Z,34.37
2022-08-14T11:18:02.198Z,35.53
2022-08-14T11:20:32.189Z,36.15
2022-08-14T11:23:02.827Z,37.51
2022-08-14T11:25:41.303Z,37.97
2022-08-14T11:28:19.239Z,37.86
2022-08-14T11:30:53.835Z,38.57
2022-08-14T11:33:29.813Z,39.16
2022-08-14T11:36:00.418Z,39.22
2022-08-14T11:38:37.861Z,39.68
2022-08-14T11:41:07.492Z,39.87
2022-08-14T11:43:41.731Z,40.37
2022-08-14T11:46:17.932Z,40.38
2022-08-14T11:49:05.787Z,40.07
2022-08-14T11:51:53.777Z,39.91
2022-08-14T11:54:34.294Z,39.27
2022-08-14T11:57:04.692Z,38.70
2022-08-14T11:59:34.015Z,39.35
2022-08-14T12:03:00.082Z,39.69
2022-08-14T12:05:00.545Z,39.75
2022-08-14T12:07:33.424Z,40.14
2022-08-14T12:10:26.560Z,39.29
2022-08-14T12:12:54.825Z,39.73
2022-08-14T12:15:31.412Z,39.79
2022-08-14T12:18:01.123Z,39.61
2022-08-14T12:20:38.721Z,39.21
2022-08-14T12:23:23.337Z,39.69
2022-08-14T12:26:39.883Z,39.14
2022-08-14T12:28:59.639Z,38.66
2022-08-14T12:31:36.414Z,38.95
2022-08-14T12:34:20.473Z,39.08
2022-08-14T12:37:05.711Z,39.32
2022-08-14T12:39:40.047Z,39.84
2022-08-14T12:42:34.610Z,39.61
2022-08-14T12:45:03.837Z,38.88
2022-08-14T12:47:32.549Z,38.72
2022-08-14T12:50:01.402Z,38.48
2022-08-14T12:52:36.217Z,38.61
2022-08-14T12:55:20.961Z,39.35
2022-08-14T12:57:53.721Z,37.84
2022-08-14T13:00:24.468Z,38.62
2022-08-14T13:02:56.479Z,38.80
2022-08-14T13:05:27.529Z,38.64
2022-08-14T13:08:32.043Z,38.00
2022-08-14T13:11:02.642Z,38.21
2022-08-14T13:13:34.426Z,38.18
2022-08-14T13:16:20.323Z,38.25
2022-08-14T13:18:58.371Z,38.13
2022-08-14T13:21:30.365Z,38.28
2022-08-14T13:24:20.886Z,37.52
2022-08-14T13:26:51.982Z,36.92
2022-08-14T13:29:23.119Z,36.47
2022-08-14T13:31:55.082Z,36.66
2022-08-14T13:34:25.894Z,36.94
2022-08-14T13:37:03.704Z,36.91
2022-08-14T13:39:36.200Z,36.75
2022-08-14T13:42:10.915Z,35.97
2022-08-14T13:44:43.013Z,36.31
2022-08-14T13:47:12.450Z,36.22
2022-08-14T13:49:57.555Z,36.17
2022-08-14T13:52:52.117Z,35.79
2022-08-14T13:55:19.740Z,35.79
2022-08-14T13:57:56.849Z,35.75
2022-08-14T14:00:53.264Z,35.27
2022-08-14T14:03:26.176Z,34.02
2022-08-14T14:06:00.116Z,34.09
2022-08-14T14:08:45.948Z,33.85
2022-08-14T14:11:20.930Z,33.70
2022-08-14T14:13:49.416Z,33.66
2022-08-14T14:16:25.928Z,33.52
2022-08-14T14:19:06.030Z,33.55
2022-08-14T14:21:36.016Z,33.44
2022-08-14T14:24:05.931Z,33.60
2022-08-14T14:26:36.316Z,34.13
2022-08-14T14:29:07.618Z,33.44
2022-08-14T14:31:38.872Z,33.30
2022-08-14T14:34:12.617Z,33.29
2022-08-14T14:37:24.402Z,33.26
2022-08-14T14:40:53.927Z,33.40
2022-08-14T14:42:51.855Z,33.42
2022-08-14T14:45:23.884Z,33.36
2022-08-14T14:47:59.173Z,33.49
2022-08-14T14:50:28.706Z,33.61
2022-08-14T14:53:12.226Z,33.36
2022-08-14T14:56:47.882Z,33.32
2022-08-14T14:58:35.582Z,33.22
2022-08-14T15:01:08.769Z,33.15
2022-08-14T15:03:40.527Z,33.18
2022-08-14T15:06:10.091Z,33.38
2022-08-14T15:08:56.920Z,33.71
2022-08-14T15:11:30.357Z,33.88
2022-08-14T15:14:55.328Z,34.04
2022-08-14T15:16:53.584Z,34.10
2022-08-14T15:19:27.660Z,33.80
2022-08-14T15:21:58.161Z,33.67
2022-08-14T15:24:27.227Z,33.48
2022-08-14T15:26:58.591Z,33.31
2022-08-14T15:29:28.534Z,33.03
2022-08-14T15:31:56.492Z,32.82
2022-08-14T15:34:43.367Z,32.61
2022-08-14T15:37:16.743Z,32.55
2022-08-14T15:39:45.464Z,32.58
2022-08-14T15:42:17.074Z,32.44
2022-08-14T15:44:58.033Z,32.42
2022-08-14T15:47:31.231Z,32.38
2022-08-14T15:50:01.636Z,32.24
2022-08-14T15:52:33.092Z,32.37
2022-08-14T15:55:04.582Z,32.27
2022-08-14T15:57:32.626Z,32.23
2022-08-14T16:00:40.837Z,32.25
2022-08-14T16:03:16.596Z,32.30
2022-08-14T16:05:46.030Z,32.16
2022-08-14T16:08:29.283Z,32.24
2022-08-14T16:11:00.708Z,32.31
2022-08-14T16:13:41.861Z,32.34
2022-08-14T16:16:46.996Z,32.24
2022-08-14T16:19:10.690Z,32.28
2022-08-14T16:22:02.193Z,32.17
2022-08-14T16:24:36.038Z,32.02
2022-08-14T16:27:33.654Z,32.04
2022-08-14T16:30:12.296Z,31.99
2022-08-14T16:32:57.443Z,31.90
2022-08-14T16:35:42.984Z,31.82
2022-08-14T16:38:35.784Z,31.76
2022-08-14T16:41:22.236Z,31.60
2022-08-14T16:43:54.242Z,31.53
2022-08-14T16:46:28.647Z,31.35
2022-08-14T16:49:00.012Z,31.28
2022-08-14T16:51:34.916Z,31.30
2022-08-14T16:54:33.769Z,31.17
2022-08-14T16:56:57.268Z,31.05
2022-08-14T16:59:30.500Z,30.89
2022-08-14T17:02:14.874Z,30.88
2022-08-14T17:04:49.149Z,30.94
2022-08-14T17:07:17.838Z,31.06
2022-08-14T17:09:48.676Z,30.95
2022-08-14T17:12:28.346Z,30.99
2022-08-14T17:15:10.757Z,31.08
2022-08-14T17:17:58.032Z,30.94
2022-08-14T17:20:53.769Z,30.96
2022-08-14T17:23:18.223Z,30.88
2022-08-14T17:25:50.727Z,30.91
2022-08-14T17:28:50.448Z,30.80
2022-08-14T17:31:12.291Z,30.67
2022-08-14T17:33:51.722Z,30.58
2022-08-14T17:36:24.008Z,30.49
2022-08-14T17:39:00.520Z,30.48
2022-08-14T17:41:37.893Z,30.26
2022-08-14T17:44:21.639Z,30.24
2022-08-14T17:46:55.130Z,30.05
2022-08-14T17:49:28.171Z,30.09
2022-08-14T17:52:07.337Z,29.97
2022-08-14T17:54:39.263Z,29.79
2022-08-14T17:57:20.000Z,29.63
2022-08-14T17:59:49.372Z,29.48
2022-08-14T18:02:22.712Z,29.27
2022-08-14T18:05:00.648Z,29.04
2022-08-14T18:07:59.412Z,28.91
2022-08-14T18:10:52.972Z,28.72
2022-08-14T18:13:10.605Z,28.62
2022-08-14T18:15:41.471Z,28.57
2022-08-14T18:18:16.131Z,28.44
2022-08-14T18:21:39.922Z,28.31
2022-08-14T18:23:33.986Z,28.24
2022-08-14T18:26:37.698Z,28.05
2022-08-14T18:29:01.062Z,27.99
2022-08-14T18:31:42.024Z,27.91
2022-08-14T18:34:30.878Z,27.88
2022-08-14T18:37:09.642Z,27.81
2022-08-14T18:40:02.791Z,27.77
2022-08-14T18:42:45.891Z,27.66
2022-08-14T18:45:19.042Z,27.67
2022-08-14T18:48:33.178Z,27.59
2022-08-14T18:51:45.577Z,27.48
2022-08-14T18:54:29.639Z,27.41
2022-08-14T18:57:03.447Z,27.36
2022-08-14T18:59:40.338Z,27.32
2022-08-14T19:02:44.350Z,27.25
2022-08-14T19:05:14.429Z,27.18
2022-08-14T19:07:43.589Z,27.18
2022-08-14T19:10:31.918Z,27.14
2022-08-14T19:13:12.068Z,27.08
2022-08-14T19:15:43.719Z,27.10
2022-08-14T19:18:26.331Z,27.03
2022-08-14T19:20:58.242Z,27.00
2022-08-14T19:23:42.448Z,26.87
2022-08-14T19:26:35.349Z,26.83
2022-08-14T19:29:36.078Z,26.74
2022-08-14T19:32:25.445Z,26.74
2022-08-14T19:34:59.816Z,26.66
2022-08-14T19:37:52.462Z,26.62
2022-08-14T19:40:34.035Z,26.50
2022-08-14T19:43:06.567Z,26.56
2022-08-14T19:45:39.916Z,26.63
2022-08-14T19:48:15.789Z,26.76
2022-08-14T19:50:46.780Z,26.84
2022-08-14T19:53:18.328Z,26.92
2022-08-14T19:55:59.031Z,26.83
2022-08-14T19:58:54.057Z,26.72
2022-08-14T20:01:36.446Z,26.72
2022-08-14T20:04:45.736Z,26.70
2022-08-14T20:07:04.414Z,26.77
2022-08-14T20:11:06.881Z,26.82
2022-08-14T20:12:35.375Z,26.85
2022-08-14T20:15:15.289Z,26.94
2022-08-14T20:17:53.175Z,26.87
2022-08-14T20:20:31.431Z,26.86
2022-08-14T20:23:11.593Z,26.53
2022-08-14T20:25:56.414Z,26.32
2022-08-14T20:28:35.991Z,26.19
2022-08-14T20:31:17.901Z,26.13
2022-08-14T20:34:18.733Z,26.21
2022-08-14T20:37:04.368Z,26.30
2022-08-14T20:39:38.200Z,26.49
2022-08-14T20:42:28.629Z,26.48
2022-08-14T20:45:19.014Z,26.49
2022-08-14T20:47:53.621Z,26.52
2022-08-14T20:50:28.635Z,26.56
2022-08-14T20:52:58.185Z,26.51
2022-08-14T20:55:32.410Z,26.51
2022-08-14T20:58:03.894Z,26.48
2022-08-14T21:00:52.671Z,26.43
2022-08-14T21:03:36.643Z,26.38
2022-08-14T21:07:22.900Z,26.30
2022-08-14T21:10:05.403Z,26.39
2022-08-14T21:12:33.749Z,26.52
2022-08-14T21:15:03.143Z,26.48
2022-08-14T21:17:31.283Z,26.37
2022-08-14T21:20:21.273Z,26.31
2022-08-14T21:22:52.406Z,26.28
2022-08-14T21:29:26.320Z,26.53
2022-08-14T21:31:55.546Z,26.39
2022-08-14T21:34:31.049Z,26.36
2022-08-14T21:37:09.842Z,26.33
2022-08-14T21:39:38.277Z,26.32
2022-08-14T21:42:06.813Z,26.29
2022-08-14T21:44:43.543Z,26.25
2022-08-14T21:47:13.431Z,26.25
2022-08-14T21:49:46.274Z,26.20
2022-08-14T21:52:49.832Z,26.43
2022-08-14T21:55:10.535Z,26.17
2022-08-14T21:58:44.502Z,26.23
2022-08-14T22:00:35.415Z,26.34
2022-08-14T22:03:09.005Z,26.48
2022-08-14T22:05:38.647Z,26.52
2022-08-14T22:08:12.014Z,26.22
2022-08-14T22:10:42.293Z,26.17
2022-08-14T22:13:11.290Z,26.11
2022-08-14T22:15:43.732Z,26.16
2022-08-14T22:18:20.258Z,26.20
2022-08-14T22:20:53.346Z,26.32
2022-08-14T22:23:24.783Z,26.23
2022-08-14T22:25:55.184Z,26.28
2022-08-14T22:28:27.260Z,26.16
2022-08-14T22:31:03.602Z,26.28
2022-08-14T22:33:39.739Z,26.27
2022-08-14T22:36:33.609Z,26.09
2022-08-14T22:39:04.927Z,26.08
2022-08-14T22:41:42.652Z,26.03
2022-08-14T22:44:15.011Z,25.95
2022-08-14T22:46:45.161Z,25.89
2022-08-14T22:50:31.239Z,25.97
2022-08-14T22:52:19.123Z,25.80
2022-08-14T22:54:58.792Z,25.71
2022-08-14T22:57:37.732Z,25.78
2022-08-14T23:00:14.257Z,25.78
2022-08-14T23:02:43.423Z,25.61
2022-08-14T23:05:15.184Z,25.64
2022-08-14T23:08:58.288Z,25.53
2022-08-14T23:10:34.814Z,25.48
2022-08-14T23:13:04.716Z,25.43
2022-08-14T23:15:34.000Z,25.52
2022-08-14T23:18:03.435Z,25.54
2022-08-14T23:20:36.208Z,25.60
2022-08-14T23:23:12.981Z,25.63
2022-08-14T23:25:58.700Z,25.69
2022-08-14T23:28:57.098Z,25.78
2022-08-14T23:31:36.107Z,25.57
2022-08-14T23:34:06.837Z,25.53
2022-08-14T23:36:38.079Z,25.36
2022-08-14T23:39:24.286Z,25.33
2022-08-14T23:41:54.425Z,25.30
2022-08-14T23:44:24.244Z,25.37
2022-08-14T23:46:57.088Z,25.33
2022-08-14T23:49:56.887Z,25.16
2022-08-14T23:52:55.721Z,25.05
2022-08-14T23:55:11.028Z,25.08
2022-08-14T23:57:44.291Z,25.07
